createdAt,value
2022-08-20T00:00:17.834Z,1.50
2022-08-20T00:02:48.600Z,1.42
2022-08-20T00:05:20.927Z,1.67
2022-08-20T00:07:49.854Z,1.70
2022-08-20T00:10:18.827Z,1.80
2022-08-20T00:12:51.149Z,1.52
2022-08-20T00:15:25.279Z,1.50
2022-08-20T00:17:54.647Z,1.50
2022-08-20T00:20:25.539Z,1.65
2022-08-20T00:22:54.280Z,1.70
2022-08-20T00:25:24.169Z,1.52
2022-08-20T00:27:52.762Z,2.00
2022-08-20T00:30:23.700Z,1.60
2022-08-20T00:32:55.221Z,2.25
2022-08-20T00:35:27.407Z,2.17
2022-08-20T00:38:00.535Z,2.30
2022-08-20T00:40:32.178Z,2.20
2022-08-20T00:43:03.104Z,1.65
2022-08-20T00:45:36.049Z,2.08
2022-08-20T00:48:05.408Z,1.90
2022-08-20T00:50:37.065Z,2.25
2022-08-20T00:53:07.952Z,1.95
2022-08-20T00:55:37.918Z,1.90
2022-08-20T00:58:09.853Z,2.05
2022-08-20T01:00:43.427Z,1.70
2022-08-20T01:03:15.981Z,1.90
2022-08-20T01:05:47.064Z,2.35
2022-08-20T01:08:17.670Z,2.20
2022-08-20T01:10:49.692Z,1.98
2022-08-20T01:13:21.776Z,1.95
2022-08-20T01:15:55.878Z,1.80
2022-08-20T01:18:28.133Z,2.10
2022-08-20T01:20:59.453Z,1.80
2022-08-20T01:23:35.477Z,1.85
2022-08-20T01:26:09.099Z,1.90
2022-08-20T01:28:41.492Z,2.22
2022-08-20T01:31:14.086Z,1.92
2022-08-20T01:33:44.183Z,1.92
2022-08-20T01:36:16.965Z,2.03
2022-08-20T01:38:54.128Z,2.30
2022-08-20T01:41:48.465Z,2.20
2022-08-20T01:44:18.744Z,1.75
2022-08-20T01:46:50.586Z,2.08
2022-08-20T01:49:23.343Z,1.75
2022-08-20T01:51:54.714Z,2.35
2022-08-20T01:54:24.462Z,2.33
2022-08-20T01:57:01.501Z,2.30
2022-08-20T01:59:30.711Z,2.25
2022-08-20T02:02:00.060Z,1.92
2022-08-20T02:04:28.741Z,2.17
2022-08-20T02:06:59.862Z,1.98
2022-08-20T02:09:31.008Z,2.10
2022-08-20T02:12:02.966Z,1.88
2022-08-20T02:14:31.977Z,1.77
2022-08-20T02:17:01.089Z,2.20
2022-08-20T02:19:34.355Z,1.85
2022-08-20T02:22:10.206Z,2.00
2022-08-20T02:24:38.736Z,2.10
2022-08-20T02:27:08.733Z,2.10
2022-08-20T02:29:37.316Z,2.33
2022-08-20T02:32:32.037Z,3.00
2022-08-20T02:34:56.218Z,2.55
2022-08-20T02:37:24.802Z,2.30
2022-08-20T02:39:53.515Z,2.58
2022-08-20T02:42:23.842Z,3.28
2022-08-20T02:44:53.999Z,2.83
2022-08-20T02:47:22.569Z,2.90
2022-08-20T02:49:51.134Z,3.20
2022-08-20T02:52:19.713Z,2.92
2022-08-20T02:54:49.403Z,2.88
2022-08-20T02:57:20.850Z,2.60
2022-08-20T02:59:52.272Z,2.67
2022-08-20T03:02:21.633Z,2.60
2022-08-20T03:04:50.265Z,2.47
2022-08-20T03:07:18.885Z,2.70
2022-08-20T03:09:47.628Z,2.85
2022-08-20T03:12:16.443Z,2.65
2022-08-20T03:14:44.965Z,2.47
2022-08-20T03:17:15.019Z,2.90
2022-08-20T03:19:43.652Z,2.38
2022-08-20T03:22:12.172Z,2.55
2022-08-20T03:24:40.695Z,2.85
2022-08-20T03:27:09.489Z,2.92
2022-08-20T03:29:40.682Z,2.88
2022-08-20T03:32:09.272Z,2.80
2022-08-20T03:34:39.235Z,2.50
2022-08-20T03:37:07.894Z,2.95
2022-08-20T03:39:36.463Z,2.58
2022-08-20T03:42:05.878Z,2.78
2022-08-20T03:44:36.262Z,2.88
2022-08-20T03:47:07.648Z,2.83
2022-08-20T03:49:36.859Z,3.03
2022-08-20T03:52:07.393Z,2.40
2022-08-20T03:54:36.115Z,2.42
2022-08-20T03:57:12.636Z,2.42
2022-08-20T03:59:41.754Z,2.40
2022-08-20T04:02:10.985Z,2.88
2022-08-20T04:04:40.594Z,2.95
2022-08-20T04:07:15.627Z,3.00
2022-08-20T04:09:44.613Z,2.78
2022-08-20T04:12:13.570Z,3.10
2022-08-20T04:14:42.145Z,2.78
2022-08-20T04:17:13.756Z,2.83
2022-08-20T04:19:44.340Z,3.20
2022-08-20T04:22:14.959Z,3.03
2022-08-20T04:24:43.799Z,2.95
2022-08-20T04:27:14.879Z,3.20
2022-08-20T04:29:44.581Z,2.85
2022-08-20T04:32:13.945Z,3.30
2022-08-20T04:34:45.542Z,3.00
2022-08-20T04:37:22.050Z,3.45
2022-08-20T04:40:05.153Z,3.17
2022-08-20T04:42:33.871Z,2.92
2022-08-20T04:45:02.842Z,3.47
2022-08-20T04:47:34.467Z,3.50
2022-08-20T04:50:03.696Z,3.92
2022-08-20T04:52:33.608Z,3.55
2022-08-20T04:55:02.859Z,3.70
2022-08-20T04:57:36.577Z,4.53
2022-08-20T05:00:07.472Z,3.95
2022-08-20T05:02:36.142Z,4.30
2022-08-20T05:05:05.413Z,4.20
2022-08-20T05:07:40.885Z,4.03
2022-08-20T05:10:12.674Z,4.38
2022-08-20T05:12:57.031Z,4.50
2022-08-20T05:15:26.459Z,4.07
2022-08-20T05:18:00.443Z,4.55
2022-08-20T05:20:32.098Z,5.03
2022-08-20T05:23:02.839Z,5.15
2022-08-20T05:25:32.379Z,6.15
2022-08-20T05:28:02.454Z,5.53
2022-08-20T05:30:34.132Z,5.57
2022-08-20T05:33:04.271Z,6.05
2022-08-20T05:35:35.854Z,7.15
2022-08-20T05:38:06.651Z,6.45
2022-08-20T05:40:36.005Z,7.07
2022-08-20T05:43:05.950Z,7.35
2022-08-20T05:45:37.377Z,7.25
2022-08-20T05:48:06.558Z,6.40
2022-08-20T05:50:35.830Z,7.60
2022-08-20T05:53:06.703Z,7.97
2022-08-20T05:55:37.382Z,6.93
2022-08-20T05:58:08.022Z,7.10
2022-08-20T06:00:37.393Z,6.65
2022-08-20T06:03:22.845Z,7.47
2022-08-20T06:05:51.549Z,8.35
2022-08-20T06:08:21.516Z,8.45
2022-08-20T06:10:50.270Z,8.50
2022-08-20T06:13:19.070Z,8.48
2022-08-20T06:15:47.694Z,7.78
2022-08-20T06:18:28.650Z,8.73
2022-08-20T06:20:57.837Z,9.15
2022-08-20T06:23:27.757Z,7.50
2022-08-20T06:26:16.504Z,8.50
2022-08-20T06:28:54.100Z,8.48
2022-08-20T06:31:23.694Z,8.93
2022-08-20T06:33:52.403Z,9.48
2022-08-20T06:36:20.959Z,9.02
2022-08-20T06:38:51.323Z,9.00
2022-08-20T06:41:19.982Z,9.85
2022-08-20T06:43:48.869Z,8.63
2022-08-20T06:46:17.548Z,9.80
2022-08-20T06:48:46.346Z,8.43
2022-08-20T06:51:14.904Z,8.90
2022-08-20T06:53:43.487Z,8.27
2022-08-20T06:56:13.685Z,8.75
2022-08-20T06:58:43.340Z,8.63
2022-08-20T07:01:13.642Z,8.60
2022-08-20T07:03:55.594Z,8.85
2022-08-20T07:06:25.992Z,8.25
2022-08-20T07:08:55.205Z,8.18
2022-08-20T07:11:28.066Z,6.97
2022-08-20T07:13:59.312Z,7.47
2022-08-20T07:16:28.103Z,7.57
2022-08-20T07:18:56.718Z,8.27
2022-08-20T07:21:25.609Z,7.63
2022-08-20T07:23:54.309Z,6.93
2022-08-20T07:26:23.271Z,7.30
2022-08-20T07:28:54.442Z,8.15
2022-08-20T07:31:42.236Z,7.38
2022-08-20T07:34:11.656Z,8.25
2022-08-20T07:36:40.902Z,6.82
2022-08-20T07:39:09.546Z,6.00
2022-08-20T07:41:38.285Z,6.45
2022-08-20T07:44:08.211Z,5.85
2022-08-20T07:46:36.813Z,5.72
2022-08-20T07:49:10.003Z,5.47
2022-08-20T07:51:38.555Z,5.20
2022-08-20T07:54:07.167Z,5.43
2022-08-20T07:56:35.751Z,5.47
2022-08-20T07:59:06.209Z,4.85
2022-08-20T08:01:36.178Z,4.90
2022-08-20T08:04:05.200Z,5.55
2022-08-20T08:06:33.780Z,5.07
2022-08-20T08:09:06.141Z,5.40
2022-08-20T08:11:37.848Z,5.80
2022-08-20T08:14:09.517Z,6.13
2022-08-20T08:16:39.760Z,6.07
2022-08-20T08:19:11.942Z,5.93
2022-08-20T08:21:41.206Z,6.43
2022-08-20T08:24:12.672Z,5.88
2022-08-20T08:26:43.001Z,5.85
2022-08-20T08:29:12.034Z,7.40
2022-08-20T08:31:42.278Z,6.95
2022-08-20T08:34:11.559Z,6.97
2022-08-20T08:36:40.431Z,7.88
2022-08-20T08:39:09.128Z,7.47
2022-08-20T08:41:49.348Z,7.88
2022-08-20T08:44:23.345Z,8.00
2022-08-20T08:46:57.526Z,8.00
2022-08-20T08:49:38.177Z,8.07
2022-08-20T08:52:12.510Z,7.47
2022-08-20T08:54:45.802Z,8.65
2022-08-20T08:57:14.517Z,7.88
2022-08-20T08:59:52.171Z,9.35
2022-08-20T09:02:36.346Z,9.00
2022-08-20T09:05:15.681Z,8.43
2022-08-20T09:07:47.904Z,10.20
2022-08-20T09:10:17.481Z,8.85
2022-08-20T09:12:52.246Z,9.25
2022-08-20T09:15:22.253Z,8.55
2022-08-20T09:17:52.296Z,8.75
2022-08-20T09:20:21.202Z,9.20
2022-08-20T09:22:56.256Z,8.73
2022-08-20T09:25:25.092Z,7.93
2022-08-20T09:27:53.681Z,8.10
2022-08-20T09:30:23.311Z,7.25
2022-08-20T09:32:53.822Z,7.45
2022-08-20T09:35:22.709Z,6.95
2022-08-20T09:37:52.733Z,6.20
2022-08-20T09:40:21.921Z,6.30
2022-08-20T09:42:51.444Z,5.88
2022-08-20T09:45:20.769Z,6.82
2022-08-20T09:47:55.081Z,5.75
2022-08-20T09:50:28.365Z,5.75
2022-08-20T09:52:59.439Z,5.63
2022-08-20T09:55:33.427Z,5.50
2022-08-20T09:58:03.229Z,5.05
2022-08-20T10:00:31.879Z,5.15
2022-08-20T10:03:01.935Z,4.82
2022-08-20T10:05:32.431Z,5.60
2022-08-20T10:08:01.016Z,5.25
2022-08-20T10:10:29.710Z,5.25
2022-08-20T10:12:58.259Z,4.70
2022-08-20T10:15:28.601Z,6.68
2022-08-20T10:17:57.562Z,7.43
2022-08-20T10:20:26.733Z,7.15
2022-08-20T10:22:56.739Z,6.22
2022-08-20T10:25:25.312Z,6.75
2022-08-20T10:27:53.917Z,6.30
2022-08-20T10:30:22.932Z,7.10
2022-08-20T10:32:51.531Z,7.80
2022-08-20T10:35:20.450Z,7.47
2022-08-20T10:37:49.052Z,7.38
2022-08-20T10:40:19.237Z,6.18
2022-08-20T10:42:47.960Z,6.20
2022-08-20T10:45:17.382Z,6.63
2022-08-20T10:47:46.325Z,6.30
2022-08-20T10:50:19.845Z,6.30
2022-08-20T10:52:48.553Z,5.78
2022-08-20T10:55:18.685Z,5.60
2022-08-20T10:57:47.573Z,6.00
2022-08-20T11:00:19.020Z,5.05
2022-08-20T11:02:47.729Z,5.40
2022-08-20T11:05:16.549Z,5.45
2022-08-20T11:07:54.788Z,4.68
2022-08-20T11:10:33.197Z,5.68
2022-08-20T11:13:01.962Z,5.80
2022-08-20T11:15:31.035Z,5.22
2022-08-20T11:17:59.604Z,5.40
2022-08-20T11:20:28.154Z,4.50
2022-08-20T11:22:56.834Z,4.18
2022-08-20T11:25:25.512Z,4.10
2022-08-20T11:27:57.030Z,4.10
2022-08-20T11:30:28.918Z,3.42
2022-08-20T11:32:58.235Z,3.63
2022-08-20T11:35:49.448Z,4.05
2022-08-20T11:38:16.989Z,3.30
2022-08-20T11:40:46.594Z,3.72
2022-08-20T11:43:17.944Z,3.20
2022-08-20T11:45:49.329Z,2.75
2022-08-20T11:48:18.198Z,3.10
2022-08-20T11:50:47.600Z,3.30
2022-08-20T11:53:16.534Z,3.22
2022-08-20T11:55:45.679Z,3.63
2022-08-20T11:58:14.332Z,2.67
2022-08-20T12:00:44.450Z,2.95
2022-08-20T12:03:13.210Z,3.78
2022-08-20T12:05:44.105Z,3.75
2022-08-20T12:08:25.301Z,4.00
2022-08-20T12:10:58.409Z,3.45
2022-08-20T12:13:30.878Z,3.40
2022-08-20T12:16:17.825Z,4.43
2022-08-20T12:18:46.959Z,3.47
2022-08-20T12:21:15.879Z,4.18
2022-08-20T12:23:45.280Z,3.67
2022-08-20T12:26:14.121Z,3.95
2022-08-20T12:28:42.653Z,4.25
2022-08-20T12:31:11.303Z,3.95
2022-08-20T12:33:41.353Z,4.28
2022-08-20T12:36:10.921Z,3.53
2022-08-20T12:38:39.510Z,4.00
2022-08-20T12:41:08.091Z,3.95
2022-08-20T12:43:37.930Z,3.58
2022-08-20T12:46:06.672Z,3.17
2022-08-20T12:48:35.231Z,3.28
2022-08-20T12:51:05.387Z,3.83
2022-08-20T12:53:33.980Z,3.88
2022-08-20T12:56:05.436Z,4.20
2022-08-20T12:58:34.645Z,4.15
2022-08-20T13:01:03.250Z,4.53
2022-08-20T13:03:32.270Z,4.00
2022-08-20T13:06:02.306Z,4.90
2022-08-20T13:08:32.210Z,4.00
2022-08-20T13:11:00.805Z,4.30
2022-08-20T13:13:29.423Z,4.57
2022-08-20T13:15:57.953Z,4.32
2022-08-20T13:18:26.740Z,4.28
2022-08-20T13:20:55.353Z,3.78
2022-08-20T13:23:23.848Z,4.15
2022-08-20T13:25:53.828Z,4.40
2022-08-20T13:28:22.499Z,4.80
2022-08-20T13:30:51.169Z,4.43
2022-08-20T13:33:19.872Z,3.85
2022-08-20T13:35:48.485Z,3.97
2022-08-20T13:38:17.023Z,4.05
2022-08-20T13:40:47.537Z,4.03
2022-08-20T13:43:19.056Z,4.38
2022-08-20T13:45:47.750Z,3.30
2022-08-20T13:48:16.546Z,3.20
2022-08-20T13:50:47.062Z,3.47
2022-08-20T13:53:17.555Z,3.33
2022-08-20T13:55:47.096Z,2.65
2022-08-20T13:58:15.873Z,3.05
2022-08-20T14:00:47.183Z,2.58
2022-08-20T14:03:20.049Z,2.85
2022-08-20T14:05:54.133Z,3.58
2022-08-20T14:08:24.575Z,3.40
2022-08-20T14:10:53.178Z,3.22
2022-08-20T14:13:25.228Z,3.30
2022-08-20T14:15:55.920Z,3.03
2022-08-20T14:18:24.463Z,3.67
2022-08-20T14:20:53.248Z,3.15
2022-08-20T14:23:21.926Z,3.03
2022-08-20T14:25:50.862Z,3.83
2022-08-20T14:28:21.560Z,3.50
2022-08-20T14:30:53.009Z,3.08
2022-08-20T14:33:24.270Z,3.90
2022-08-20T14:35:53.487Z,3.42
2022-08-20T14:38:22.178Z,2.78
2022-08-20T14:40:51.031Z,3.25
2022-08-20T14:43:19.677Z,3.00
2022-08-20T14:45:48.262Z,3.33
2022-08-20T14:48:16.864Z,3.00
2022-08-20T14:50:46.819Z,3.42
2022-08-20T14:53:15.502Z,2.45
2022-08-20T14:55:44.093Z,3.47
2022-08-20T14:58:14.918Z,3.13
2022-08-20T15:00:44.491Z,2.67
2022-08-20T15:03:14.197Z,3.63
2022-08-20T15:05:43.919Z,3.00
2022-08-20T15:08:14.059Z,2.65
2022-08-20T15:10:43.040Z,2.33
2022-08-20T15:13:11.713Z,2.30
2022-08-20T15:15:40.448Z,2.97
2022-08-20T15:18:09.395Z,2.78
2022-08-20T15:20:38.669Z,2.55
2022-08-20T15:23:07.756Z,2.75
2022-08-20T15:25:38.422Z,2.63
2022-08-20T15:28:09.106Z,3.05
2022-08-20T15:30:39.168Z,2.63
2022-08-20T15:33:07.970Z,3.17
2022-08-20T15:35:36.719Z,2.88
2022-08-20T15:38:05.325Z,2.50
2022-08-20T15:40:34.447Z,2.28
2022-08-20T15:43:05.784Z,2.60
2022-08-20T15:45:36.361Z,2.45
2022-08-20T15:48:12.777Z,2.35
2022-08-20T15:50:57.728Z,2.63
2022-08-20T15:53:32.887Z,2.17
2022-08-20T15:56:09.853Z,2.13
2022-08-20T15:58:52.503Z,2.30
2022-08-20T16:01:28.860Z,2.03
2022-08-20T16:04:13.597Z,2.05
2022-08-20T16:06:44.387Z,1.92
2022-08-20T16:09:33.163Z,2.17
2022-08-20T16:12:07.122Z,2.30
2022-08-20T16:14:40.143Z,2.10
2022-08-20T16:17:12.177Z,2.13
2022-08-20T16:19:52.495Z,2.00
2022-08-20T16:22:21.558Z,2.08
2022-08-20T16:24:51.165Z,2.22
2022-08-20T16:27:28.972Z,1.85
2022-08-20T16:30:02.958Z,1.70
2022-08-20T16:32:37.225Z,2.10
2022-08-20T16:35:26.304Z,2.10
2022-08-20T16:38:04.473Z,2.42
2022-08-20T16:40:36.626Z,2.05
2022-08-20T16:43:08.321Z,2.20
2022-08-20T16:45:45.543Z,2.08
2022-08-20T16:48:20.743Z,2.30
2022-08-20T16:50:58.069Z,2.40
2022-08-20T16:53:27.711Z,2.13
2022-08-20T16:55:57.122Z,2.13
2022-08-20T16:58:25.980Z,3.80
2022-08-20T17:01:08.816Z,2.50
2022-08-20T17:03:39.877Z,2.80
2022-08-20T17:06:19.926Z,3.05
2022-08-20T17:08:50.882Z,2.78
2022-08-20T17:11:26.287Z,2.38
2022-08-20T17:14:05.942Z,2.53
2022-08-20T17:16:38.897Z,2.60
2022-08-20T17:19:18.209Z,2.58
2022-08-20T17:21:50.411Z,2.42
2022-08-20T17:24:24.391Z,2.60
2022-08-20T17:27:00.265Z,2.80
2022-08-20T17:29:32.012Z,2.70
2022-08-20T17:32:10.849Z,2.58
2022-08-20T17:34:46.166Z,2.35
2022-08-20T17:37:21.530Z,2.72
2022-08-20T17:39:54.232Z,2.50
2022-08-20T17:42:26.109Z,2.40
2022-08-20T17:44:59.104Z,2.40
2022-08-20T17:47:35.017Z,2.42
2022-08-20T17:50:13.393Z,2.60
2022-08-20T17:52:47.858Z,2.72
2022-08-20T17:55:16.569Z,2.60
2022-08-20T17:57:49.761Z,2.95
2022-08-20T18:00:23.430Z,2.70
2022-08-20T18:02:56.087Z,2.75
2022-08-20T18:05:25.602Z,2.67
2022-08-20T18:08:08.527Z,2.67
2022-08-20T18:10:43.999Z,2.42
2022-08-20T18:13:18.705Z,2.33
2022-08-20T18:15:54.808Z,2.65
2022-08-20T18:18:32.421Z,2.75
2022-08-20T18:21:22.278Z,2.80
2022-08-20T18:23:55.964Z,2.38
2022-08-20T18:26:28.528Z,2.78
2022-08-20T18:29:01.613Z,2.70
2022-08-20T18:31:34.560Z,2.85
2022-08-20T18:34:15.179Z,2.90
2022-08-20T18:36:54.829Z,2.58
2022-08-20T18:39:28.005Z,2.60
2022-08-20T18:41:59.523Z,2.83
2022-08-20T18:44:38.846Z,2.60
2022-08-20T18:47:21.003Z,2.53
2022-08-20T18:50:06.590Z,2.90
2022-08-20T18:52:47.325Z,3.13
2022-08-20T18:55:29.770Z,2.65
2022-08-20T18:58:00.971Z,2.45
2022-08-20T19:00:39.549Z,3.10
2022-08-20T19:03:18.144Z,3.20
2022-08-20T19:06:14.345Z,3.10
2022-08-20T19:08:48.758Z,3.47
2022-08-20T19:11:51.279Z,2.90
2022-08-20T19:14:47.288Z,3.50
2022-08-20T19:17:19.035Z,3.08
2022-08-20T19:19:58.959Z,3.22
2022-08-20T19:22:29.701Z,4.00
2022-08-20T19:24:59.471Z,3.08
2022-08-20T19:27:30.434Z,3.63
2022-08-20T19:29:59.271Z,3.88
2022-08-20T19:32:31.217Z,3.92
2022-08-20T19:35:04.711Z,3.70
2022-08-20T19:37:40.193Z,3.63
2022-08-20T19:40:25.693Z,3.03
2022-08-20T19:42:59.068Z,2.92
2022-08-20T19:45:31.630Z,3.10
2022-08-20T19:48:14.955Z,3.15
2022-08-20T19:50:50.798Z,3.42
2022-08-20T19:53:30.797Z,3.42
2022-08-20T19:56:02.166Z,3.25
2022-08-20T19:58:32.292Z,3.42
2022-08-20T20:01:04.155Z,3.40
2022-08-20T20:03:35.090Z,3.22
2022-08-20T20:06:16.796Z,3.35
2022-08-20T20:08:55.542Z,3.22
2022-08-20T20:11:30.171Z,3.70
2022-08-20T20:14:03.234Z,3.30
2022-08-20T20:16:33.015Z,3.67
2022-08-20T20:19:25.313Z,3.53
2022-08-20T20:22:02.364Z,3.22
2022-08-20T20:24:42.165Z,3.33
2022-08-20T20:27:15.092Z,3.50
2022-08-20T20:29:49.841Z,3.40
2022-08-20T20:32:22.429Z,3.78
2022-08-20T20:34:56.103Z,3.47
2022-08-20T20:37:49.980Z,3.45
2022-08-20T20:40:26.874Z,3.72
2022-08-20T20:43:02.299Z,3.40
2022-08-20T20:45:34.429Z,3.60
2022-08-20T20:48:15.415Z,3.88
2022-08-20T20:50:44.405Z,3.80
2022-08-20T20:53:14.058Z,3.72
2022-08-20T20:55:56.387Z,3.90
2022-08-20T20:58:25.242Z,3.88
2022-08-20T21:00:55.986Z,3.90
2022-08-20T21:03:24.569Z,3.55
2022-08-20T21:05:53.951Z,3.90
2022-08-20T21:08:24.310Z,3.53
2022-08-20T21:10:54.468Z,4.00
2022-08-20T21:13:23.026Z,3.97
2022-08-20T21:15:51.582Z,4.05
2022-08-20T21:18:22.961Z,3.45
2022-08-20T21:20:55.165Z,3.58
2022-08-20T21:23:40.332Z,4.22
2022-08-20T21:26:12.026Z,3.53
2022-08-20T21:28:40.793Z,3.80
2022-08-20T21:31:09.369Z,4.10
2022-08-20T21:33:38.169Z,4.07
2022-08-20T21:36:07.156Z,3.85
2022-08-20T21:38:35.767Z,3.85
2022-08-20T21:41:04.540Z,3.83
2022-08-20T21:43:35.180Z,4.10
2022-08-20T21:46:04.952Z,4.20
2022-08-20T21:48:33.950Z,3.97
2022-08-20T21:51:02.566Z,3.60
2022-08-20T21:53:31.151Z,4.05
2022-08-20T21:56:01.030Z,4.13
2022-08-20T21:58:29.669Z,3.75
2022-08-20T22:01:02.276Z,3.72
2022-08-20T22:03:33.606Z,3.50
2022-08-20T22:06:07.113Z,4.40
2022-08-20T22:08:36.455Z,3.45
2022-08-20T22:11:08.001Z,3.97
2022-08-20T22:13:36.814Z,4.45
2022-08-20T22:16:09.496Z,3.75
2022-08-20T22:18:38.383Z,3.78
2022-08-20T22:21:11.121Z,3.85
2022-08-20T22:23:40.486Z,4.78
2022-08-20T22:26:10.129Z,4.05
2022-08-20T22:28:39.337Z,3.70
2022-08-20T22:31:09.913Z,3.80
2022-08-20T22:33:40.628Z,3.63
2022-08-20T22:36:09.366Z,4.18
2022-08-20T22:38:38.120Z,3.80
2022-08-20T22:41:09.754Z,4.60
2022-08-20T22:43:45.028Z,4.20
2022-08-20T22:46:31.408Z,4.10
2022-08-20T22:49:00.355Z,3.90
2022-08-20T22:51:31.650Z,3.72
2022-08-20T22:54:05.116Z,3.60
2022-08-20T22:56:33.682Z,4.07
2022-08-20T22:59:04.166Z,3.90
2022-08-20T23:01:34.314Z,3.65
2022-08-20T23:04:06.404Z,4.18
2022-08-20T23:06:35.022Z,4.00
2022-08-20T23:09:03.630Z,3.88
2022-08-20T23:11:32.618Z,3.72
2022-08-20T23:14:01.229Z,4.28
2022-08-20T23:16:30.063Z,3.67
2022-08-20T23:18:59.957Z,3.47
2022-08-20T23:21:28.586Z,3.75
2022-08-20T23:23:57.221Z,3.97
2022-08-20T23:26:25.965Z,3.75
2022-08-20T23:28:54.523Z,3.90
2022-08-20T23:31:23.133Z,4.03
2022-08-20T23:33:51.916Z,3.40
2022-08-20T23:36:22.858Z,4.18
2022-08-20T23:38:51.657Z,4.30
2022-08-20T23:41:20.193Z,3.88
2022-08-20T23:43:48.742Z,4.07
2022-08-20T23:46:17.934Z,3.70
2022-08-20T23:48:46.466Z,3.83
2022-08-20T23:51:15.036Z,3.83
2022-08-20T23:53:45.093Z,4.55
2022-08-20T23:56:14.044Z,3.63
2022-08-20T23:58:42.647Z,4.28
